Auto, West Virginia
Current Conditions -  °F | °C
As of 3:35 PM on Tuesday 25 Nov 2014 (Local Time) from KLWB Reporting Station
Clear Clear  
Wind Chill: 53°   Ceiling: Unl
Heat Index: 53°   Visibility: 10mi
Dew Point: 24°   Wind: 6mph
Humidity: 33%   Direction: 240°WSW
Pressure: 30.04"   Gusts: NA
Location:  37.96°N, 80.33°W
Report Text: KLWB 252035Z AUTO 24005KT 10SM CLR 12/M04 A3004 RMK AO2 T01161042
Loading
Personal Weather Stations






























Interactive Weather Map New forecast layout! Learn more

10-Day Weather Forecast

Advertisements
Track Severe Weather on mobile